Time;durP1;ratioP1;P1;durP2;ratioP2;P2;SDS_P1;SDS_P2;PMS_P1;PMS_P2;Temp;Humidity;BMP_temperature;BMP_pressure;BME280_temperature;BME280_humidity;BME280_pressure;Samples;Min_cycle;Max_cycle;Signal;HPM_P1;HPM_P2
2023/01/10 00:01:32;;;;;;;4.78;1.33;;;;;;;19.24;39.46;101247.91;16202551;19;128627;-47
2023/01/10 00:06:53;;;;;;;3.60;1.55;;;;;;;19.21;39.39;101248.38;16203903;19;131450;-46
2023/01/10 00:17:59;;;;;;;3.50;1.17;;;;;;;19.13;39.58;101270.91;16209473;19;129450;-49
2023/01/10 00:23:21;;;;;;;5.43;1.38;;;;;;;19.10;39.66;101283.34;16203749;19;128429;-50
2023/01/10 00:28:43;;;;;;;4.15;1.30;;;;;;;19.07;39.44;101295.75;16207130;19;129210;-45
2023/01/10 00:34:06;;;;;;;3.40;1.10;;;;;;;19.06;39.62;101295.97;16202777;19;129887;-44
2023/01/10 00:39:28;;;;;;;2.30;1.00;;;;;;;19.03;39.43;101290.91;16201201;19;129188;-47
2023/01/10 00:44:50;;;;;;;3.25;1.10;;;;;;;19.00;39.26;101308.88;16200895;19;128929;-47
2023/01/10 00:50:12;;;;;;;3.17;1.05;;;;;;;18.96;39.35;101327.06;16201352;19;128289;-45
2023/01/10 00:55:35;;;;;;;2.97;1.10;;;;;;;18.93;39.14;101324.78;16200090;19;129333;-47
2023/01/10 01:00:57;;;;;;;4.53;1.38;;;;;;;18.90;39.41;101334.41;16199600;19;128374;-50
2023/01/10 01:06:19;;;;;;;3.45;1.00;;;;;;;18.88;39.20;101324.66;16199492;19;129521;-49
2023/01/10 01:11:41;;;;;;;5.30;1.58;;;;;;;18.87;39.35;101343.22;16200979;19;129254;-50
2023/01/10 01:17:03;;;;;;;3.25;1.13;;;;;;;18.85;39.47;101350.06;16201218;19;128873;-47
2023/01/10 01:22:24;;;;;;;2.45;0.95;;;;;;;18.83;39.50;101366.94;16197537;19;129193;-51
2023/01/10 01:27:46;;;;;;;4.05;1.10;;;;;;;18.80;39.18;101370.19;16198946;19;129182;-47
2023/01/10 01:33:08;;;;;;;2.28;1.10;;;;;;;18.79;39.57;101378.75;16198264;19;129018;-52
2023/01/10 01:38:30;;;;;;;1.73;0.77;;;;;;;18.77;39.55;101381.75;16186122;19;129049;-51
2023/01/10 01:44:00;;;;;;;1.30;0.80;;;;;;;18.75;39.09;101378.38;16165814;19;129013;-52
2023/01/10 01:49:23;;;;;;;1.65;0.88;;;;;;;18.72;39.25;101384.41;16178537;19;129370;-50
2023/01/10 01:54:45;;;;;;;1.27;0.68;;;;;;;18.69;39.26;101385.72;16177285;19;129267;-50
2023/01/10 02:00:09;;;;;;;1.98;0.80;;;;;;;18.67;39.59;101390.66;16168378;19;128907;-44
2023/01/10 02:05:32;;;;;;;1.85;0.75;;;;;;;18.67;39.28;101398.09;16146891;19;129692;-43
2023/01/10 02:11:07;;;;;;;2.25;0.65;;;;;;;18.66;39.27;101410.25;16189849;19;129947;-47
2023/01/10 02:16:29;;;;;;;1.98;0.70;;;;;;;18.62;39.20;101409.91;16209132;19;129387;-44
2023/01/10 02:22:20;;;;;;;2.45;0.75;;;;;;;18.60;39.22;101398.19;16208136;19;129438;-48
2023/01/10 02:27:44;;;;;;;1.92;0.60;;;;;;;18.58;39.60;101405.91;16205976;19;128571;-48
2023/01/10 02:33:14;;;;;;;2.63;0.70;;;;;;;18.56;39.58;101405.31;16204364;19;129526;-47
2023/01/10 02:39:15;;;;;;;2.95;0.70;;;;;;;18.55;39.48;101411.94;16201593;19;129151;-53
2023/01/10 02:44:52;;;;;;;1.40;0.60;;;;;;;18.53;39.60;101436.25;16205089;19;129519;-49
2023/01/10 02:50:29;;;;;;;2.60;0.75;;;;;;;18.52;39.31;101440.09;16205440;19;129125;-48
2023/01/10 02:55:53;;;;;;;1.27;0.50;;;;;;;18.51;39.25;101443.94;16202368;19;128979;-46
2023/01/10 03:01:36;;;;;;;1.92;0.63;;;;;;;18.50;39.43;101442.25;16201145;19;130001;-45
2023/01/10 03:07:07;;;;;;;1.35;0.60;;;;;;;18.47;39.16;101457.41;16206119;19;129196;-48
2023/01/10 03:12:36;;;;;;;1.95;0.70;;;;;;;18.45;39.36;101465.09;16206966;19;128476;-47
2023/01/10 03:18:01;;;;;;;1.80;0.70;;;;;;;18.43;39.46;101468.13;16205431;19;129652;-47
2023/01/10 03:23:24;;;;;;;1.27;0.55;;;;;;;18.43;39.61;101470.91;16205461;19;134334;-45
2023/01/10 03:28:54;;;;;;;2.15;0.63;;;;;;;18.42;39.47;101474.75;16210007;19;129683;-47
2023/01/10 03:34:16;;;;;;;2.05;0.80;;;;;;;18.39;39.48;101477.97;16201104;19;129488;-53
2023/01/10 03:40:04;;;;;;;2.42;0.60;;;;;;;18.38;39.55;101484.56;16205844;19;132400;-46
2023/01/10 03:45:32;;;;;;;1.75;0.70;;;;;;;18.37;39.49;101491.16;16202673;19;129030;-51
2023/01/10 03:50:57;;;;;;;3.10;0.80;;;;;;;18.36;39.51;101496.94;16202819;19;128969;-46
2023/01/10 03:56:19;;;;;;;1.75;0.60;;;;;;;18.35;39.08;101512.69;16203791;19;128558;-42
2023/01/10 04:01:41;;;;;;;3.28;0.77;;;;;;;18.34;39.52;101518.50;16202434;19;128628;-48
2023/01/10 04:07:03;;;;;;;1.52;0.60;;;;;;;18.32;39.39;101518.72;16204241;19;128773;-47
2023/01/10 04:12:25;;;;;;;1.33;0.60;;;;;;;18.32;39.32;101518.72;16201003;19;129093;-45
2023/01/10 04:17:47;;;;;;;1.65;0.60;;;;;;;18.30;39.09;101523.66;16203887;19;128724;-47
2023/01/10 04:23:09;;;;;;;2.08;0.60;;;;;;;18.29;39.17;101527.50;16202596;19;129143;-44
2023/01/10 04:28:31;;;;;;;1.20;0.40;;;;;;;18.27;39.33;101543.47;16200789;19;130827;-47
2023/01/10 04:33:53;;;;;;;2.75;0.70;;;;;;;18.27;39.49;101560.09;16201500;19;128583;-50
2023/01/10 04:39:15;;;;;;;1.40;0.60;;;;;;;18.24;39.46;101543.94;16199073;19;129276;-49
2023/01/10 04:44:37;;;;;;;1.38;0.60;;;;;;;18.23;39.05;101547.78;16202871;19;129354;-46
2023/01/10 04:49:58;;;;;;;2.35;0.82;;;;;;;18.22;38.98;101555.25;16202624;19;133663;-44
2023/01/10 04:55:20;;;;;;;2.05;0.68;;;;;;;18.21;39.08;101566.56;16201456;19;128552;-47
2023/01/10 05:00:42;;;;;;;1.67;0.70;;;;;;;18.20;39.44;101575.94;16200517;19;128830;-47
2023/01/10 05:06:04;;;;;;;1.55;0.70;;;;;;;18.20;39.31;101584.25;16206236;19;130022;-44
2023/01/10 05:11:26;;;;;;;1.98;0.80;;;;;;;18.18;38.95;101589.16;16200416;19;129817;-48
2023/01/10 05:16:48;;;;;;;2.22;0.65;;;;;;;18.18;38.93;101589.16;16204164;19;128971;-46
2023/01/10 05:22:10;;;;;;;1.23;0.47;;;;;;;18.14;38.98;101586.84;16197361;19;128596;-49
2023/01/10 05:27:31;;;;;;;2.55;0.90;;;;;;;18.14;38.89;101595.16;16197299;19;128957;-42
2023/01/10 05:32:53;;;;;;;2.30;0.60;;;;;;;18.13;38.87;101606.47;16198229;19;129176;-48
2023/01/10 05:38:15;;;;;;;2.13;0.70;;;;;;;18.12;39.12;101613.91;16196312;19;129754;-47
2023/01/10 05:43:37;;;;;;;1.67;0.55;;;;;;;18.12;38.94;101619.44;16197830;19;129721;-52
2023/01/10 05:48:59;;;;;;;1.77;0.57;;;;;;;18.11;39.00;101623.28;16215005;19;130169;-48
2023/01/10 05:54:20;;;;;;;2.45;0.75;;;;;;;18.09;38.86;101630.13;16211616;19;128566;-50
2023/01/10 05:59:42;;;;;;;3.17;0.70;;;;;;;18.08;39.01;101636.75;16212369;19;129199;-49
2023/01/10 06:05:04;;;;;;;2.17;0.60;;;;;;;18.08;39.23;101642.28;16208090;19;129536;-45
2023/01/10 06:10:26;;;;;;;1.98;0.60;;;;;;;18.07;38.85;101649.75;16209864;19;128629;-51
2023/01/10 06:15:48;;;;;;;3.05;0.77;;;;;;;18.07;39.06;101651.66;16211157;19;129041;-49
2023/01/10 06:21:10;;;;;;;3.60;0.95;;;;;;;18.03;38.87;101648.50;16206973;19;128944;-53
2023/01/10 06:26:32;;;;;;;5.65;0.90;;;;;;;18.06;39.17;101648.06;16203866;19;131220;-48
2023/01/10 06:31:54;;;;;;;3.92;1.35;;;;;;;18.11;39.08;101644.63;16203265;19;128466;-48
2023/01/10 06:37:15;;;;;;;7.88;1.20;;;;;;;18.15;39.13;101655.00;16161891;19;129282;-51
2023/01/10 06:42:40;;;;;;;2.90;1.10;;;;;;;18.18;38.74;101663.94;16167341;19;131163;-47
2023/01/10 06:48:03;;;;;;;10.32;1.45;;;;;;;18.15;38.95;101668.84;16166493;19;129174;-50
2023/01/10 06:53:24;;;;;;;9.27;1.27;;;;;;;18.15;38.78;101673.56;16162662;19;129127;-47
2023/01/10 06:58:48;;;;;;;6.72;1.23;;;;;;;18.12;38.61;101679.53;16159752;19;129553;-49
2023/01/10 07:04:10;;;;;;;5.80;1.30;;;;;;;18.10;38.89;101688.06;16152977;19;130132;-50
2023/01/10 07:09:32;;;;;;;6.65;1.00;;;;;;;18.09;38.89;101691.06;16159675;19;129747;-52
2023/01/10 07:14:54;;;;;;;2.67;0.98;;;;;;;18.07;38.59;101705.13;16160859;19;129168;-49
2023/01/10 07:20:16;;;;;;;3.80;0.73;;;;;;;18.06;38.62;101710.88;16151038;19;130180;-53
2023/01/10 07:25:38;;;;;;;3.92;0.90;;;;;;;18.04;39.04;101726.84;16138085;19;129286;-50
2023/01/10 07:31:01;;;;;;;3.38;0.90;;;;;;;18.04;38.80;101741.56;16143752;19;129862;-52
2023/01/10 07:36:23;;;;;;;4.40;1.05;;;;;;;18.03;38.96;101736.28;16146076;19;129425;-51
2023/01/10 07:41:49;;;;;;;3.90;0.85;;;;;;;18.02;38.97;101746.47;16146305;19;128951;-52
2023/01/10 07:47:10;;;;;;;;;;;;;;;17.98;38.96;101756.28;16186461;19;129455;-50
2023/01/10 07:52:32;;;;;;;3.15;1.02;;;;;;;18.01;39.06;101744.78;16205319;19;129022;-51
2023/01/10 07:57:54;;;;;;;4.68;1.00;;;;;;;18.04;38.95;101749.88;16206521;19;128965;-51
2023/01/10 08:03:16;;;;;;;2.75;1.00;;;;;;;18.12;38.85;101757.06;16205187;19;128541;-51
2023/01/10 08:08:38;;;;;;;2.70;0.93;;;;;;;18.18;38.51;101749.78;16203902;19;131790;-50
2023/01/10 08:14:00;;;;;;;2.28;0.80;;;;;;;18.19;38.29;101741.25;16204230;19;129566;-48
2023/01/10 08:19:22;;;;;;;2.75;0.73;;;;;;;18.21;38.33;101733.56;16149518;19;129361;-48
2023/01/10 08:24:43;;;;;;;4.97;0.80;;;;;;;18.23;38.25;101741.66;16140480;19;135376;-46
2023/01/10 08:30:06;;;;;;;2.65;1.02;;;;;;;18.23;38.34;101744.41;16140613;19;129301;-49
2023/01/10 08:35:28;;;;;;;3.97;0.70;;;;;;;18.23;38.22;101742.50;16136912;19;129663;-47
2023/01/10 08:40:49;;;;;;;3.25;0.95;;;;;;;18.21;38.56;101741.06;16139277;19;130435;-50
2023/01/10 08:46:11;;;;;;;4.68;0.90;;;;;;;18.17;38.51;101748.09;16136898;19;130055;-53
2023/01/10 08:51:33;;;;;;;3.88;1.02;;;;;;;18.13;38.52;101743.00;16136331;19;129688;-46
2023/01/10 08:56:55;;;;;;;3.63;1.23;;;;;;;18.10;38.45;101748.97;16137149;19;129441;-48
2023/01/10 09:02:17;;;;;;;4.43;1.10;;;;;;;18.06;38.05;101742.19;16126768;19;129063;-46
2023/01/10 09:07:40;;;;;;;5.72;1.40;;;;;;;18.03;38.44;101748.19;16119970;19;131528;-50
2023/01/10 09:13:03;;;;;;;4.82;1.27;;;;;;;18.01;38.08;101742.00;16125043;19;129572;-45
2023/01/10 09:18:25;;;;;;;6.82;1.50;;;;;;;18.00;37.92;101734.78;16125181;19;129354;-47
2023/01/10 09:23:48;;;;;;;3.88;1.17;;;;;;;17.99;38.08;101724.75;16137369;19;129638;-46
2023/01/10 09:29:09;;;;;;;7.93;1.27;;;;;;;17.98;38.26;101723.94;16136520;19;129279;-50
2023/01/10 09:34:31;;;;;;;5.20;1.35;;;;;;;17.98;37.80;101732.25;16134891;19;129029;-46
2023/01/10 09:39:53;;;;;;;6.50;1.33;;;;;;;17.97;37.84;101716.69;16138909;19;131570;-49
2023/01/10 09:45:48;;;;;;;6.03;1.52;;;;;;;17.98;37.95;101718.41;16137571;19;129587;-48
2023/01/10 09:51:12;;;;;;;5.07;1.38;;;;;;;17.97;37.73;101704.78;16137488;19;129708;-48
2023/01/10 09:56:36;;;;;;;5.40;1.00;;;;;;;17.95;37.70;101695.84;16138031;19;130944;-47
2023/01/10 10:02:33;;;;;;;6.45;1.60;;;;;;;17.96;37.78;101708.63;16137658;19;129468;-48
2023/01/10 10:08:01;;;;;;;13.85;1.52;;;;;;;17.95;37.68;101687.53;16136525;19;129412;-48
2023/01/10 10:13:33;;;;;;;5.22;1.35;;;;;;;17.94;37.63;101689.44;16138025;19;129638;-49
2023/01/10 10:19:08;;;;;;;7.60;1.25;;;;;;;17.94;37.93;101672.84;16136961;19;129603;-46
2023/01/10 10:24:50;;;;;;;4.37;1.10;;;;;;;17.91;38.03;101683.50;16133401;19;129892;-46
2023/01/10 10:30:21;;;;;;;11.40;1.30;;;;;;;17.92;37.61;101668.59;16131126;19;129794;-48
2023/01/10 10:35:58;;;;;;;6.95;1.33;;;;;;;17.91;37.78;101648.34;16134777;19;129412;-46
2023/01/10 10:41:31;;;;;;;4.05;1.08;;;;;;;17.89;37.87;101652.44;16132557;19;130068;-48
2023/01/10 10:46:55;;;;;;;4.10;1.17;;;;;;;17.88;37.78;101645.19;16134106;19;130013;-45
2023/01/10 10:52:24;;;;;;;4.00;1.10;;;;;;;17.89;37.89;101627.53;16133517;19;130082;-46
2023/01/10 10:57:46;;;;;;;4.65;0.85;;;;;;;17.87;37.90;101621.34;16136325;19;130323;-48
2023/01/10 11:03:43;;;;;;;4.57;0.90;;;;;;;17.87;37.75;101613.91;16131916;19;129560;-46
2023/01/10 11:09:05;;;;;;;6.50;1.45;;;;;;;17.84;37.99;101601.38;16136629;19;129470;-47
2023/01/10 11:14:46;;;;;;;7.20;1.25;;;;;;;17.84;38.09;101604.16;16134111;19;130726;-46
2023/01/10 11:20:17;;;;;;;4.65;1.00;;;;;;;17.84;37.66;101595.84;16130269;19;129389;-46
2023/01/10 11:25:46;;;;;;;3.85;1.20;;;;;;;17.82;37.76;101586.91;16131821;19;135218;-48
2023/01/10 11:31:08;;;;;;;3.20;1.40;;;;;;;17.83;37.95;101587.75;16130494;19;129852;-46
2023/01/10 11:37:00;;;;;;;3.42;0.82;;;;;;;17.81;37.83;101574.16;16127204;19;130499;-48
2023/01/10 11:42:22;;;;;;;2.63;0.90;;;;;;;17.80;38.07;101593.72;16125960;19;130368;-45
2023/01/10 11:48:24;;;;;;;5.63;1.48;;;;;;;17.77;38.10;101578.41;16127015;19;129894;-46
2023/01/10 11:54:12;;;;;;;4.38;0.88;;;;;;;17.78;38.20;101569.06;16117432;19;129308;-48
2023/01/10 11:59:33;;;;;;;5.50;1.30;;;;;;;17.76;38.07;101559.28;16118948;19;131516;-46
2023/01/10 12:05:00;;;;;;;4.25;1.20;;;;;;;17.75;37.99;101552.06;16119045;19;129837;-53
2023/01/10 12:10:24;;;;;;;4.13;1.25;;;;;;;17.74;38.17;101534.59;16123507;19;129403;-56
2023/01/10 12:15:48;;;;;;;7.47;1.45;;;;;;;17.74;37.82;101528.22;16119779;19;130635;-56
2023/01/10 12:21:13;;;;;;;8.45;1.52;;;;;;;17.72;37.97;101522.91;16118634;19;129392;-56
2023/01/10 12:26:35;;;;;;;9.07;1.52;;;;;;;17.71;37.96;101517.59;16124558;19;130297;-49
2023/01/10 12:31:59;;;;;;;10.15;1.70;;;;;;;17.69;37.60;101498.47;16130246;19;129450;-49
2023/01/10 12:37:31;;;;;;;9.07;1.90;;;;;;;17.67;37.45;101504.19;16126459;19;129467;-48
2023/01/10 12:49:21;;;;;;;8.88;2.20;;;;;;;17.66;37.48;101488.66;16125173;19;129722;-49
2023/01/10 12:54:46;;;;;;;10.93;2.15;;;;;;;17.64;37.46;101479.78;16122225;19;129704;-47
2023/01/10 13:00:28;;;;;;;6.57;2.57;;;;;;;17.65;37.29;101477.84;16120716;19;129232;-48
2023/01/10 13:05:59;;;;;;;6.85;2.15;;;;;;;17.64;36.95;101463.16;16125365;19;129944;-48
2023/01/10 13:11:24;;;;;;;10.68;2.00;;;;;;;17.63;37.47;101458.72;16122570;19;129894;-48
2023/01/10 13:16:57;;;;;;;9.63;1.80;;;;;;;17.64;37.15;101445.72;16125313;19;129674;-53
2023/01/10 13:22:22;;;;;;;6.72;2.00;;;;;;;17.62;37.11;101431.25;16124961;19;131359;-47
2023/01/10 13:27:44;;;;;;;11.93;1.88;;;;;;;17.61;37.26;101415.72;16121205;19;129504;-49
2023/01/10 13:33:19;;;;;;;8.43;1.70;;;;;;;17.61;37.21;101411.03;16121241;19;129985;-46
2023/01/10 13:38:47;;;;;;;8.40;2.20;;;;;;;17.61;37.44;101396.34;16120722;19;129176;-48
2023/01/10 13:44:12;;;;;;;5.28;1.38;;;;;;;17.59;37.08;101384.69;16120185;19;129515;-50
2023/01/10 13:49:42;;;;;;;11.77;1.88;;;;;;;17.58;37.22;101375.53;16120766;19;130389;-48
2023/01/10 13:55:34;;;;;;;9.07;1.77;;;;;;;17.59;37.03;101373.63;16119505;19;129494;-50
2023/01/10 14:06:40;;;;;;;6.13;1.40;;;;;;;17.54;37.40;101358.53;16129743;19;129592;-49
2023/01/10 14:12:06;;;;;;;7.43;1.60;;;;;;;17.53;37.25;101333.84;16137107;19;129392;-46
2023/01/10 14:17:31;;;;;;;6.22;1.48;;;;;;;17.52;37.27;101327.47;16134027;19;129707;-48
2023/01/10 14:23:00;;;;;;;10.40;1.90;;;;;;;17.54;37.42;101313.38;16133357;19;129376;-46
2023/01/10 14:28:25;;;;;;;5.82;1.48;;;;;;;17.52;37.34;101299.78;16134177;19;129536;-51
2023/01/10 14:33:48;;;;;;;7.07;1.45;;;;;;;17.51;37.47;101289.81;16131894;19;130585;-49
2023/01/10 14:39:14;;;;;;;5.10;1.65;;;;;;;17.52;37.28;101274.06;16131182;19;129698;-47
2023/01/10 14:44:45;;;;;;;7.75;1.88;;;;;;;17.53;37.50;101242.56;16128630;19;129665;-50
2023/01/10 14:50:22;;;;;;;7.75;1.75;;;;;;;17.53;37.30;101235.09;16131597;19;129604;-47
2023/01/10 14:55:44;;;;;;;8.13;1.58;;;;;;;17.52;37.16;101211.28;16132068;19;130980;-48
2023/01/10 15:01:08;;;;;;;5.95;1.50;;;;;;;17.53;37.28;101196.38;16131444;19;131408;-46
2023/01/10 15:06:58;;;;;;;3.73;1.23;;;;;;;17.56;37.31;101191.50;16128335;19;129436;-48
2023/01/10 15:12:22;;;;;;;6.05;1.40;;;;;;;17.53;37.16;101174.25;16128033;19;129698;-48
2023/01/10 15:17:45;;;;;;;5.13;1.25;;;;;;;17.54;37.50;101180.59;16130285;19;130755;-48
2023/01/10 15:23:13;;;;;;;6.65;1.30;;;;;;;17.54;37.52;101153.84;16126616;19;129321;-48
2023/01/10 15:28:36;;;;;;;8.77;1.60;;;;;;;17.54;37.15;101172.31;16129902;19;129716;-49
2023/01/10 15:33:57;;;;;;;4.63;1.30;;;;;;;17.54;37.54;101155.72;16129041;19;129327;-48
2023/01/10 15:39:22;;;;;;;6.65;1.45;;;;;;;17.53;37.64;101135.50;16127085;19;129390;-48
2023/01/10 15:44:51;;;;;;;4.50;1.27;;;;;;;17.53;37.24;101134.69;16128213;19;130527;-50
2023/01/10 15:50:22;;;;;;;10.43;1.40;;;;;;;17.53;37.63;101121.69;16127221;19;130246;-47
2023/01/10 15:55:51;;;;;;;4.07;1.10;;;;;;;17.52;37.25;101108.94;16128049;19;129796;-49
2023/01/10 16:01:15;;;;;;;4.20;1.13;;;;;;;17.50;37.61;101107.47;16127849;19;129465;-48
2023/01/10 16:06:37;;;;;;;5.15;1.10;;;;;;;17.49;37.26;101100.25;16127976;19;129463;-46
2023/01/10 16:17:39;;;;;;;3.67;0.95;;;;;;;17.47;37.67;101086.69;16124919;19;129383;-48
2023/01/10 16:23:03;;;;;;;3.65;1.00;;;;;;;17.45;37.39;101094.34;16126931;19;129682;-46
2023/01/10 16:28:29;;;;;;;4.45;0.98;;;;;;;17.44;37.74;101084.38;16125463;19;130347;-46
2023/01/10 16:33:51;;;;;;;;;;;;;;;17.41;37.35;101081.25;16123599;19;129841;-47
2023/01/10 16:39:18;;;;;;;3.67;1.08;;;;;;;17.45;37.25;101074.13;16123984;19;129239;-50
2023/01/10 16:44:40;;;;;;;4.35;1.10;;;;;;;17.44;37.60;101072.44;16125734;19;130676;-47
2023/01/10 16:50:02;;;;;;;9.15;0.82;;;;;;;17.44;37.68;101072.44;16122059;19;129188;-51
2023/01/10 16:55:35;;;;;;;3.85;0.80;;;;;;;17.44;37.50;101081.59;16120677;19;130792;-48
2023/01/10 17:00:57;;;;;;;7.15;0.90;;;;;;;17.44;37.75;101080.75;16120141;19;129880;-48
2023/01/10 17:06:19;;;;;;;3.88;0.70;;;;;;;17.45;37.59;101080.53;16119666;19;129629;-48
2023/01/10 17:11:41;;;;;;;9.13;1.25;;;;;;;17.46;37.43;101050.94;16109661;19;131101;-52
2023/01/10 17:17:03;;;;;;;5.22;0.73;;;;;;;17.44;37.84;101048.41;16120356;19;132636;-49
2023/01/10 17:22:25;;;;;;;4.63;0.80;;;;;;;17.47;37.73;101047.97;16117959;19;130813;-50
2023/01/10 17:27:47;;;;;;;7.40;0.90;;;;;;;17.76;37.83;101039.88;16120569;19;129849;-50
2023/01/10 17:33:11;;;;;;;4.43;1.10;;;;;;;18.31;36.88;101043.41;16112968;19;130074;-52
2023/01/10 17:38:32;;;;;;;12.70;1.45;;;;;;;18.86;36.27;101035.75;16115305;19;131616;-53
2023/01/10 17:43:54;;;;;;;7.90;1.63;;;;;;;19.34;35.92;101028.13;16128786;19;130572;-52
2023/01/10 17:49:16;;;;;;;9.25;2.17;;;;;;;19.77;35.37;101017.50;16134830;19;129236;-50
2023/01/10 17:54:37;;;;;;;6.80;1.80;;;;;;;20.08;35.49;101013.31;16132908;19;129434;-50
2023/01/10 17:59:59;;;;;;;10.50;2.38;;;;;;;20.38;34.96;101008.47;16135219;19;130322;-52
2023/01/10 18:05:21;;;;;;;8.98;2.00;;;;;;;20.61;34.83;101004.63;16133268;19;129628;-50
2023/01/10 18:10:43;;;;;;;6.35;1.90;;;;;;;20.79;34.73;100999.84;16135086;19;129414;-53
2023/01/10 18:16:05;;;;;;;9.93;1.75;;;;;;;20.82;34.46;100983.50;16135448;19;130117;-53
2023/01/10 18:21:27;;;;;;;12.38;1.92;;;;;;;20.78;34.11;100971.22;16130450;19;130185;-52
2023/01/10 18:26:48;;;;;;;9.23;1.55;;;;;;;20.69;34.56;100956.06;16135907;19;130051;-53
2023/01/10 18:32:10;;;;;;;10.77;1.83;;;;;;;20.58;34.71;100961.50;16125957;19;130480;-49
2023/01/10 18:37:33;;;;;;;11.82;1.98;;;;;;;20.43;34.90;100966.88;16126103;19;130439;-51
2023/01/10 18:42:57;;;;;;;11.85;2.17;;;;;;;20.32;34.81;100953.91;16127828;19;129914;-49
2023/01/10 18:48:20;;;;;;;9.93;1.98;;;;;;;20.21;35.31;100945.44;16125379;19;134984;-51
2023/01/10 18:53:41;;;;;;;10.45;1.67;;;;;;;20.22;35.42;100949.91;16123047;19;129579;-50
2023/01/10 18:59:03;;;;;;;10.90;1.77;;;;;;;20.27;35.41;100941.66;16123310;19;131951;-47
2023/01/10 19:04:25;;;;;;;6.35;1.63;;;;;;;20.32;35.14;100935.31;16127822;19;135066;-50
2023/01/10 19:09:47;;;;;;;10.50;1.52;;;;;;;20.47;35.24;100931.91;16128151;19;129692;-47
2023/01/10 19:15:09;;;;;;;6.72;1.10;;;;;;;20.77;34.68;100929.75;16130566;19;130747;-46
2023/01/10 19:20:31;;;;;;;7.03;1.13;;;;;;;21.07;34.42;100929.25;16128909;19;129649;-48
2023/01/10 19:25:56;;;;;;;10.63;1.05;;;;;;;21.37;34.23;100917.56;16130993;19;130515;-49
2023/01/10 19:31:23;;;;;;;6.45;1.17;;;;;;;21.63;34.09;100891.91;16125884;19;130246;-52
2023/01/10 19:36:45;;;;;;;6.93;1.40;;;;;;;21.83;33.76;100892.03;16130024;19;130025;-48
2023/01/10 19:42:07;;;;;;;7.32;1.13;;;;;;;22.03;33.40;100900.78;16129881;19;129500;-49
2023/01/10 19:47:29;;;;;;;3.50;0.77;;;;;;;22.13;33.64;100890.53;16126613;19;130384;-50
2023/01/10 19:52:51;;;;;;;7.78;1.02;;;;;;;22.19;33.76;100871.91;16126507;19;129659;-52
2023/01/10 19:58:12;;;;;;;7.85;1.33;;;;;;;22.23;33.61;100877.78;16125632;19;129582;-55
2023/01/10 20:03:34;;;;;;;4.68;1.10;;;;;;;22.31;33.84;100873.63;16125158;19;130107;-54
2023/01/10 20:08:57;;;;;;;5.60;0.68;;;;;;;22.35;33.53;100870.03;16124652;19;129787;-47
2023/01/10 20:14:20;;;;;;;7.93;1.00;;;;;;;22.40;33.36;100860.84;16124746;19;134613;-52
2023/01/10 20:19:42;;;;;;;5.60;0.90;;;;;;;22.44;33.32;100859.19;16125443;19;129640;-52
2023/01/10 20:25:04;;;;;;;6.22;0.98;;;;;;;22.50;33.63;100855.28;16124181;19;131209;-53
2023/01/10 20:30:26;;;;;;;5.90;1.17;;;;;;;22.59;33.05;100852.81;16122089;19;129668;-52
2023/01/10 20:35:58;;;;;;;3.80;0.93;;;;;;;22.65;33.47;100851.69;16123149;19;129897;-52
2023/01/10 20:41:28;;;;;;;7.38;0.63;;;;;;;22.70;33.43;100846.16;16119523;19;129870;-54
2023/01/10 20:46:50;;;;;;;3.38;0.82;;;;;;;22.76;33.27;100840.59;16120162;19;129159;-52
2023/01/10 20:52:12;;;;;;;5.68;0.75;;;;;;;22.77;33.40;100845.88;16124546;19;130247;-52
2023/01/10 20:57:33;;;;;;;6.25;0.88;;;;;;;22.80;33.41;100844.47;16119828;19;132051;-50
2023/01/10 21:02:55;;;;;;;8.13;0.65;;;;;;;22.85;33.53;100847.28;16120861;19;129585;-52
2023/01/10 21:08:18;;;;;;;2.47;0.60;;;;;;;22.89;33.43;100843.66;16117014;19;129738;-53
2023/01/10 21:13:40;;;;;;;10.82;1.17;;;;;;;22.87;33.44;100840.31;16116191;19;131427;-54
2023/01/10 21:19:03;;;;;;;9.68;1.00;;;;;;;22.76;33.75;100823.84;16110127;19;129710;-52
2023/01/10 21:24:25;;;;;;;16.77;1.33;;;;;;;22.64;33.72;100821.31;16109129;19;130899;-51
2023/01/10 21:29:47;;;;;;;9.48;1.42;;;;;;;22.51;33.66;100809.59;16118335;19;129539;-50
2023/01/10 21:35:09;;;;;;;6.47;0.68;;;;;;;22.41;34.21;100807.59;16116712;19;130248;-53
2023/01/10 21:40:32;;;;;;;4.25;0.60;;;;;;;22.31;34.47;100790.03;16115859;19;129595;-49
2023/01/10 21:45:58;;;;;;;5.00;0.80;;;;;;;22.10;34.21;100790.78;16118751;19;131285;-51
2023/01/10 21:51:19;;;;;;;11.73;0.70;;;;;;;21.90;34.42;100787.94;16115449;19;129468;-50
2023/01/10 21:56:42;;;;;;;11.93;0.80;;;;;;;21.73;34.21;100786.16;16117690;19;129586;-47
2023/01/10 22:02:03;;;;;;;8.95;1.10;;;;;;;21.60;34.52;100772.75;16113566;19;134960;-47
2023/01/10 22:07:27;;;;;;;14.18;0.73;;;;;;;21.47;35.29;100758.16;16114985;19;129844;-49
2023/01/10 22:12:48;;;;;;;13.95;1.08;;;;;;;21.35;35.08;100752.78;16117641;19;130822;-48
2023/01/10 22:18:10;;;;;;;13.82;0.82;;;;;;;21.25;35.56;100752.75;16115286;19;130132;-54
2023/01/10 22:23:33;;;;;;;12.10;0.77;;;;;;;21.11;35.37;100741.25;16115244;19;131094;-53
2023/01/10 22:28:55;;;;;;;11.57;1.08;;;;;;;20.98;35.80;100741.72;16131458;19;128891;-50
2023/01/10 22:34:17;;;;;;;8.18;0.88;;;;;;;20.85;35.53;100740.25;16129850;19;129639;-51
2023/01/10 22:39:39;;;;;;;6.72;0.75;;;;;;;20.71;35.71;100743.44;16128915;19;129631;-53
2023/01/10 22:45:00;;;;;;;6.13;0.70;;;;;;;20.61;36.20;100726.69;16132765;19;129550;-50
2023/01/10 22:50:23;;;;;;;10.15;1.08;;;;;;;20.51;36.07;100721.84;16131482;19;129529;-53
2023/01/10 22:55:44;;;;;;;8.30;0.90;;;;;;;20.42;36.10;100720.66;16131713;19;129324;-55
2023/01/10 23:01:07;;;;;;;5.47;0.70;;;;;;;20.31;36.48;100703.06;16131774;19;129586;-50
2023/01/10 23:06:28;;;;;;;7.70;0.70;;;;;;;20.23;36.15;100709.09;16129248;19;129546;-50
2023/01/10 23:11:50;;;;;;;1.65;0.50;;;;;;;20.16;36.38;100702.91;16131183;19;129948;-53
2023/01/10 23:17:12;;;;;;;6.63;0.52;;;;;;;20.09;36.26;100703.09;16131170;19;129004;-49
2023/01/10 23:22:34;;;;;;;2.90;0.30;;;;;;;20.03;36.33;100709.72;16129554;19;129660;-51
2023/01/10 23:27:55;;;;;;;2.13;0.52;;;;;;;19.95;36.86;100706.25;16129243;19;129460;-50
2023/01/10 23:33:17;;;;;;;4.00;0.60;;;;;;;19.90;36.71;100688.72;16127021;19;129907;-48
2023/01/10 23:38:39;;;;;;;3.28;0.52;;;;;;;19.86;36.50;100690.34;16126237;19;129734;-49
2023/01/10 23:44:01;;;;;;;4.63;0.60;;;;;;;19.81;36.72;100674.47;16127786;19;129294;-49
2023/01/10 23:49:22;;;;;;;4.05;0.50;;;;;;;19.77;36.94;100673.31;16127660;19;129069;-56
2023/01/10 23:54:44;;;;;;;1.90;0.35;;;;;;;19.73;36.48;100670.22;16125837;19;130365;-57
